sensor_id;sensor_type;location;lat;lon;timestamp;temperature;humidity
66422;DHT22;53228;51.380;0.098;2023-09-19T00:00:49;13.00;99.90
66422;DHT22;53228;51.380;0.098;2023-09-19T00:03:17;11.00;99.90
66422;DHT22;53228;51.380;0.098;2023-09-19T00:05:45;11.00;99.90
66422;DHT22;53228;51.380;0.098;2023-09-19T00:08:13;11.00;99.90
66422;DHT22;53228;51.380;0.098;2023-09-19T00:10:42;8.40;99.90
66422;DHT22;53228;51.380;0.098;2023-09-19T00:13:10;11.00;99.90
66422;DHT22;53228;51.380;0.098;2023-09-19T00:15:44;11.00;99.90
66422;DHT22;53228;51.380;0.098;2023-09-19T00:18:23;11.00;99.90
66422;DHT22;53228;51.380;0.098;2023-09-19T00:20:58;11.00;99.90
66422;DHT22;53228;51.380;0.098;2023-09-19T00:23:27;11.00;99.90
66422;DHT22;53228;51.380;0.098;2023-09-19T00:25:58;11.00;99.90
66422;DHT22;53228;51.380;0.098;2023-09-19T00:28:27;11.10;99.90
66422;DHT22;53228;51.380;0.098;2023-09-19T00:30:54;11.10;99.90
66422;DHT22;53228;51.380;0.098;2023-09-19T00:33:22;12.30;99.90
66422;DHT22;53228;51.380;0.098;2023-09-19T00:35:52;11.20;99.90
66422;DHT22;53228;51.380;0.098;2023-09-19T00:38:21;11.20;99.90
66422;DHT22;53228;51.380;0.098;2023-09-19T00:40:53;11.20;99.90
66422;DHT22;53228;51.380;0.098;2023-09-19T00:43:21;11.20;99.90
66422;DHT22;53228;51.380;0.098;2023-09-19T00:45:54;9.20;99.90
66422;DHT22;53228;51.380;0.098;2023-09-19T00:48:22;11.20;99.90
66422;DHT22;53228;51.380;0.098;2023-09-19T00:50:57;11.20;99.90
66422;DHT22;53228;51.380;0.098;2023-09-19T00:53:27;11.20;99.90
66422;DHT22;53228;51.380;0.098;2023-09-19T00:55:55;11.10;99.90
66422;DHT22;53228;51.380;0.098;2023-09-19T00:58:24;11.20;99.90
66422;DHT22;53228;51.380;0.098;2023-09-19T01:00:52;11.20;99.90
66422;DHT22;53228;51.380;0.098;2023-09-19T01:03:20;12.30;99.90
66422;DHT22;53228;51.380;0.098;2023-09-19T01:05:49;11.20;99.90
66422;DHT22;53228;51.380;0.098;2023-09-19T01:08:19;11.20;99.90
66422;DHT22;53228;51.380;0.098;2023-09-19T01:10:52;11.20;99.90
66422;DHT22;53228;51.380;0.098;2023-09-19T01:13:31;11.20;99.90
66422;DHT22;53228;51.380;0.098;2023-09-19T01:19:01;11.20;99.90
66422;DHT22;53228;51.380;0.098;2023-09-19T01:21:51;11.20;99.90
66422;DHT22;53228;51.380;0.098;2023-09-19T01:30:14;11.20;99.90
66422;DHT22;53228;51.380;0.098;2023-09-19T01:32:44;11.20;99.90
66422;DHT22;53228;51.380;0.098;2023-09-19T01:35:13;11.50;99.90
66422;DHT22;53228;51.380;0.098;2023-09-19T01:37:41;13.70;99.90
66422;DHT22;53228;51.380;0.098;2023-09-19T01:40:14;11.20;99.90
66422;DHT22;53228;51.380;0.098;2023-09-19T01:51:06;11.30;99.90
66422;DHT22;53228;51.380;0.098;2023-09-19T01:56:46;11.20;99.90
66422;DHT22;53228;51.380;0.098;2023-09-19T01:59:21;14.30;99.90
66422;DHT22;53228;51.380;0.098;2023-09-19T02:01:52;11.50;99.90
66422;DHT22;53228;51.380;0.098;2023-09-19T02:04:21;8.90;99.90
66422;DHT22;53228;51.380;0.098;2023-09-19T02:06:48;11.50;99.90
66422;DHT22;53228;51.380;0.098;2023-09-19T02:09:16;11.50;99.90
66422;DHT22;53228;51.380;0.098;2023-09-19T02:11:44;11.60;99.90
66422;DHT22;53228;51.380;0.098;2023-09-19T02:14:14;9.00;99.90
66422;DHT22;53228;51.380;0.098;2023-09-19T02:16:42;11.60;99.90
66422;DHT22;53228;51.380;0.098;2023-09-19T02:19:10;11.70;99.90
66422;DHT22;53228;51.380;0.098;2023-09-19T02:21:37;11.70;99.90
66422;DHT22;53228;51.380;0.098;2023-09-19T02:24:08;11.70;99.90
66422;DHT22;53228;51.380;0.098;2023-09-19T02:26:37;11.70;99.90
66422;DHT22;53228;51.380;0.098;2023-09-19T02:29:06;11.70;99.90
66422;DHT22;53228;51.380;0.098;2023-09-19T02:31:35;13.60;99.90
66422;DHT22;53228;51.380;0.098;2023-09-19T02:34:03;11.90;99.90
66422;DHT22;53228;51.380;0.098;2023-09-19T02:36:32;11.70;99.90
66422;DHT22;53228;51.380;0.098;2023-09-19T02:39:00;11.70;99.90
66422;DHT22;53228;51.380;0.098;2023-09-19T02:41:29;11.70;99.90
66422;DHT22;53228;51.380;0.098;2023-09-19T02:43:57;11.70;99.90
66422;DHT22;53228;51.380;0.098;2023-09-19T02:46:28;11.70;99.90
66422;DHT22;53228;51.380;0.098;2023-09-19T02:48:55;12.50;99.90
66422;DHT22;53228;51.380;0.098;2023-09-19T02:51:23;11.70;99.90
66422;DHT22;53228;51.380;0.098;2023-09-19T02:53:51;11.70;99.90
66422;DHT22;53228;51.380;0.098;2023-09-19T02:56:20;11.70;99.90
66422;DHT22;53228;51.380;0.098;2023-09-19T02:58:47;14.20;99.90
66422;DHT22;53228;51.380;0.098;2023-09-19T03:01:16;11.60;99.90
66422;DHT22;53228;51.380;0.098;2023-09-19T03:03:44;11.60;99.90
66422;DHT22;53228;51.380;0.098;2023-09-19T03:06:12;11.60;99.90
66422;DHT22;53228;51.380;0.098;2023-09-19T03:08:40;9.00;99.90
66422;DHT22;53228;51.380;0.098;2023-09-19T03:11:10;11.50;99.90
66422;DHT22;53228;51.380;0.098;2023-09-19T03:13:42;11.50;99.90
66422;DHT22;53228;51.380;0.098;2023-09-19T03:16:11;13.30;99.90
66422;DHT22;53228;51.380;0.098;2023-09-19T03:18:42;11.30;99.90
66422;DHT22;53228;51.380;0.098;2023-09-19T03:21:10;11.40;99.90
66422;DHT22;53228;51.380;0.098;2023-09-19T03:23:40;11.40;99.90
66422;DHT22;53228;51.380;0.098;2023-09-19T03:26:08;11.40;99.90
66422;DHT22;53228;51.380;0.098;2023-09-19T03:28:36;11.40;99.90
66422;DHT22;53228;51.380;0.098;2023-09-19T03:31:06;11.40;99.90
66422;DHT22;53228;51.380;0.098;2023-09-19T03:33:36;11.40;99.90
66422;DHT22;53228;51.380;0.098;2023-09-19T03:36:05;11.40;99.90
66422;DHT22;53228;51.380;0.098;2023-09-19T03:38:34;11.40;99.90
66422;DHT22;53228;51.380;0.098;2023-09-19T03:41:02;11.40;99.90
66422;DHT22;53228;51.380;0.098;2023-09-19T03:43:32;11.40;99.90
66422;DHT22;53228;51.380;0.098;2023-09-19T03:46:03;11.40;99.90
66422;DHT22;53228;51.380;0.098;2023-09-19T03:48:34;11.40;99.90
66422;DHT22;53228;51.380;0.098;2023-09-19T03:51:03;11.40;99.90
66422;DHT22;53228;51.380;0.098;2023-09-19T03:53:31;11.40;99.90
66422;DHT22;53228;51.380;0.098;2023-09-19T03:55:59;11.50;99.90
66422;DHT22;53228;51.380;0.098;2023-09-19T03:58:28;11.50;99.90
66422;DHT22;53228;51.380;0.098;2023-09-19T04:00:57;11.50;99.90
66422;DHT22;53228;51.380;0.098;2023-09-19T04:03:27;10.60;99.90
66422;DHT22;53228;51.380;0.098;2023-09-19T04:06:02;11.50;99.90
66422;DHT22;53228;51.380;0.098;2023-09-19T04:08:30;11.60;99.90
66422;DHT22;53228;51.380;0.098;2023-09-19T04:10:58;11.60;99.90
66422;DHT22;53228;51.380;0.098;2023-09-19T04:13:26;11.60;99.90
66422;DHT22;53228;51.380;0.098;2023-09-19T04:15:54;11.60;99.90
66422;DHT22;53228;51.380;0.098;2023-09-19T04:18:21;8.70;99.90
66422;DHT22;53228;51.380;0.098;2023-09-19T04:20:51;9.40;99.90
66422;DHT22;53228;51.380;0.098;2023-09-19T04:23:19;11.60;99.90
66422;DHT22;53228;51.380;0.098;2023-09-19T04:25:49;13.60;99.90
66422;DHT22;53228;51.380;0.098;2023-09-19T04:28:18;9.50;99.90
66422;DHT22;53228;51.380;0.098;2023-09-19T04:30:46;11.60;99.90
66422;DHT22;53228;51.380;0.098;2023-09-19T04:33:13;14.50;99.90
66422;DHT22;53228;51.380;0.098;2023-09-19T04:35:42;11.60;99.90
66422;DHT22;53228;51.380;0.098;2023-09-19T04:38:10;11.70;99.90
66422;DHT22;53228;51.380;0.098;2023-09-19T04:40:37;11.60;99.90
66422;DHT22;53228;51.380;0.098;2023-09-19T04:43:07;11.60;99.90
66422;DHT22;53228;51.380;0.098;2023-09-19T04:45:35;11.60;99.90
66422;DHT22;53228;51.380;0.098;2023-09-19T04:48:02;11.70;99.90
66422;DHT22;53228;51.380;0.098;2023-09-19T04:50:30;11.70;99.90
66422;DHT22;53228;51.380;0.098;2023-09-19T04:52:58;11.70;99.90
66422;DHT22;53228;51.380;0.098;2023-09-19T04:55:26;11.70;99.90
66422;DHT22;53228;51.380;0.098;2023-09-19T04:57:54;11.70;99.90
66422;DHT22;53228;51.380;0.098;2023-09-19T05:00:23;11.70;99.90
66422;DHT22;53228;51.380;0.098;2023-09-19T05:02:52;11.70;99.90
66422;DHT22;53228;51.380;0.098;2023-09-19T05:05:22;11.70;99.90
66422;DHT22;53228;51.380;0.098;2023-09-19T05:07:52;11.70;99.90
66422;DHT22;53228;51.380;0.098;2023-09-19T05:10:20;11.70;99.90
66422;DHT22;53228;51.380;0.098;2023-09-19T05:12:48;11.70;99.90
66422;DHT22;53228;51.380;0.098;2023-09-19T05:15:19;11.70;99.90
66422;DHT22;53228;51.380;0.098;2023-09-19T05:17:52;11.80;99.90
66422;DHT22;53228;51.380;0.098;2023-09-19T05:20:25;11.70;99.90
66422;DHT22;53228;51.380;0.098;2023-09-19T05:23:05;11.80;99.90
66422;DHT22;53228;51.380;0.098;2023-09-19T05:25:37;11.80;99.90
66422;DHT22;53228;51.380;0.098;2023-09-19T05:28:06;11.80;99.90
66422;DHT22;53228;51.380;0.098;2023-09-19T05:30:35;11.80;99.90
66422;DHT22;53228;51.380;0.098;2023-09-19T05:33:04;11.90;99.90
66422;DHT22;53228;51.380;0.098;2023-09-19T05:35:32;11.90;99.90
66422;DHT22;53228;51.380;0.098;2023-09-19T05:38:00;11.90;99.90
66422;DHT22;53228;51.380;0.098;2023-09-19T05:40:28;11.90;99.90
66422;DHT22;53228;51.380;0.098;2023-09-19T05:42:55;11.90;99.90
66422;DHT22;53228;51.380;0.098;2023-09-19T05:45:23;11.90;99.90
66422;DHT22;53228;51.380;0.098;2023-09-19T05:47:52;12.00;99.90
66422;DHT22;53228;51.380;0.098;2023-09-19T05:50:23;12.00;99.90
66422;DHT22;53228;51.380;0.098;2023-09-19T05:52:54;12.00;99.90
66422;DHT22;53228;51.380;0.098;2023-09-19T05:55:23;12.00;99.90
66422;DHT22;53228;51.380;0.098;2023-09-19T05:57:56;12.10;99.90
66422;DHT22;53228;51.380;0.098;2023-09-19T06:00:24;12.50;99.90
66422;DHT22;53228;51.380;0.098;2023-09-19T06:02:57;12.10;99.90
66422;DHT22;53228;51.380;0.098;2023-09-19T06:05:27;12.20;99.90
66422;DHT22;53228;51.380;0.098;2023-09-19T06:07:55;12.20;99.90
66422;DHT22;53228;51.380;0.098;2023-09-19T06:10:22;12.30;99.90
66422;DHT22;53228;51.380;0.098;2023-09-19T06:12:51;12.30;99.90
66422;DHT22;53228;51.380;0.098;2023-09-19T06:15:18;12.30;99.90
66422;DHT22;53228;51.380;0.098;2023-09-19T06:17:48;12.30;99.90
66422;DHT22;53228;51.380;0.098;2023-09-19T06:20:16;12.40;99.90
66422;DHT22;53228;51.380;0.098;2023-09-19T06:22:45;12.50;99.90
66422;DHT22;53228;51.380;0.098;2023-09-19T06:25:14;12.50;99.90
66422;DHT22;53228;51.380;0.098;2023-09-19T06:27:52;12.50;99.90
66422;DHT22;53228;51.380;0.098;2023-09-19T06:30:23;12.60;99.90
66422;DHT22;53228;51.380;0.098;2023-09-19T06:32:56;10.00;99.90
66422;DHT22;53228;51.380;0.098;2023-09-19T06:35:24;12.70;99.90
66422;DHT22;53228;51.380;0.098;2023-09-19T06:37:53;12.80;99.90
66422;DHT22;53228;51.380;0.098;2023-09-19T06:40:21;12.80;99.90
66422;DHT22;53228;51.380;0.098;2023-09-19T06:42:52;12.90;99.90
66422;DHT22;53228;51.380;0.098;2023-09-19T06:45:21;12.90;99.90
66422;DHT22;53228;51.380;0.098;2023-09-19T06:47:51;13.00;99.90
66422;DHT22;53228;51.380;0.098;2023-09-19T06:50:21;13.00;99.90
66422;DHT22;53228;51.380;0.098;2023-09-19T06:52:54;13.10;99.90
66422;DHT22;53228;51.380;0.098;2023-09-19T06:55:24;13.10;99.90
66422;DHT22;53228;51.380;0.098;2023-09-19T06:57:54;13.20;99.90
66422;DHT22;53228;51.380;0.098;2023-09-19T07:00:22;13.20;99.90
66422;DHT22;53228;51.380;0.098;2023-09-19T07:02:58;13.30;99.90
66422;DHT22;53228;51.380;0.098;2023-09-19T07:05:28;13.40;99.90
66422;DHT22;53228;51.380;0.098;2023-09-19T07:07:56;13.40;99.90
66422;DHT22;53228;51.380;0.098;2023-09-19T07:10:26;13.50;99.90
66422;DHT22;53228;51.380;0.098;2023-09-19T07:15:25;13.40;99.90
66422;DHT22;53228;51.380;0.098;2023-09-19T07:17:53;13.60;99.90
66422;DHT22;53228;51.380;0.098;2023-09-19T07:20:22;13.70;99.90
66422;DHT22;53228;51.380;0.098;2023-09-19T07:22:50;13.70;99.90
66422;DHT22;53228;51.380;0.098;2023-09-19T07:25:18;13.80;99.90
66422;DHT22;53228;51.380;0.098;2023-09-19T07:27:46;13.80;99.90
66422;DHT22;53228;51.380;0.098;2023-09-19T07:30:14;13.90;99.90
66422;DHT22;53228;51.380;0.098;2023-09-19T07:32:44;14.00;99.90
66422;DHT22;53228;51.380;0.098;2023-09-19T07:35:12;13.40;99.90
66422;DHT22;53228;51.380;0.098;2023-09-19T07:37:39;14.10;99.90
66422;DHT22;53228;51.380;0.098;2023-09-19T07:40:07;14.20;99.90
66422;DHT22;53228;51.380;0.098;2023-09-19T07:42:36;14.30;99.90
66422;DHT22;53228;51.380;0.098;2023-09-19T07:45:07;14.40;99.90
66422;DHT22;53228;51.380;0.098;2023-09-19T07:47:35;14.40;99.90
66422;DHT22;53228;51.380;0.098;2023-09-19T07:50:04;14.50;99.90
66422;DHT22;53228;51.380;0.098;2023-09-19T07:52:35;14.50;99.90
66422;DHT22;53228;51.380;0.098;2023-09-19T07:55:02;14.60;99.90
66422;DHT22;53228;51.380;0.098;2023-09-19T07:57:36;14.60;99.90
66422;DHT22;53228;51.380;0.098;2023-09-19T08:00:05;14.70;99.90
66422;DHT22;53228;51.380;0.098;2023-09-19T08:02:39;15.60;99.90
66422;DHT22;53228;51.380;0.098;2023-09-19T08:05:11;14.80;99.90
66422;DHT22;53228;51.380;0.098;2023-09-19T08:07:40;14.80;99.90
66422;DHT22;53228;51.380;0.098;2023-09-19T08:10:09;14.80;99.90
66422;DHT22;53228;51.380;0.098;2023-09-19T08:12:44;14.90;99.90
66422;DHT22;53228;51.380;0.098;2023-09-19T08:15:17;14.90;99.90
66422;DHT22;53228;51.380;0.098;2023-09-19T08:17:45;14.90;99.90
66422;DHT22;53228;51.380;0.098;2023-09-19T08:20:13;15.00;99.90
66422;DHT22;53228;51.380;0.098;2023-09-19T08:22:49;15.00;99.90
66422;DHT22;53228;51.380;0.098;2023-09-19T08:25:20;13.90;99.90
66422;DHT22;53228;51.380;0.098;2023-09-19T08:27:51;15.10;99.90
66422;DHT22;53228;51.380;0.098;2023-09-19T08:30:20;15.20;99.90
66422;DHT22;53228;51.380;0.098;2023-09-19T08:33:01;15.40;99.90
66422;DHT22;53228;51.380;0.098;2023-09-19T08:35:32;15.30;99.90
66422;DHT22;53228;51.380;0.098;2023-09-19T08:37:59;15.30;99.90
66422;DHT22;53228;51.380;0.098;2023-09-19T08:40:33;15.40;99.90
66422;DHT22;53228;51.380;0.098;2023-09-19T08:43:04;15.40;99.90
66422;DHT22;53228;51.380;0.098;2023-09-19T08:45:31;15.50;99.90
66422;DHT22;53228;51.380;0.098;2023-09-19T08:48:28;15.50;99.90
66422;DHT22;53228;51.380;0.098;2023-09-19T08:51:41;15.60;99.90
66422;DHT22;53228;51.380;0.098;2023-09-19T08:54:07;15.60;99.90
66422;DHT22;53228;51.380;0.098;2023-09-19T08:56:35;15.70;99.90
66422;DHT22;53228;51.380;0.098;2023-09-19T08:59:07;15.80;99.90
66422;DHT22;53228;51.380;0.098;2023-09-19T09:01:41;15.90;99.90
66422;DHT22;53228;51.380;0.098;2023-09-19T09:04:10;15.90;99.90
66422;DHT22;53228;51.380;0.098;2023-09-19T09:06:42;16.00;99.90
66422;DHT22;53228;51.380;0.098;2023-09-19T09:09:12;17.80;99.90
66422;DHT22;53228;51.380;0.098;2023-09-19T09:11:40;16.10;99.90
66422;DHT22;53228;51.380;0.098;2023-09-19T09:14:08;16.30;99.90
66422;DHT22;53228;51.380;0.098;2023-09-19T09:16:36;16.40;99.90
66422;DHT22;53228;51.380;0.098;2023-09-19T09:19:05;16.40;99.90
66422;DHT22;53228;51.380;0.098;2023-09-19T09:21:32;15.70;99.90
66422;DHT22;53228;51.380;0.098;2023-09-19T09:24:27;16.70;99.90
66422;DHT22;53228;51.380;0.098;2023-09-19T09:27:04;16.10;99.90
66422;DHT22;53228;51.380;0.098;2023-09-19T09:29:45;16.80;99.90
66422;DHT22;53228;51.380;0.098;2023-09-19T09:34:58;17.00;99.90
66422;DHT22;53228;51.380;0.098;2023-09-19T09:37:30;15.40;99.90
66422;DHT22;53228;51.380;0.098;2023-09-19T09:40:00;17.10;99.90
66422;DHT22;53228;51.380;0.098;2023-09-19T09:42:43;18.10;99.90
66422;DHT22;53228;51.380;0.098;2023-09-19T09:45:18;17.30;99.90
66422;DHT22;53228;51.380;0.098;2023-09-19T09:48:01;17.40;99.90
66422;DHT22;53228;51.380;0.098;2023-09-19T09:50:48;16.20;99.90
66422;DHT22;53228;51.380;0.098;2023-09-19T09:53:30;17.50;99.90
66422;DHT22;53228;51.380;0.098;2023-09-19T09:56:08;17.50;99.90
66422;DHT22;53228;51.380;0.098;2023-09-19T09:58:51;17.60;99.90
66422;DHT22;53228;51.380;0.098;2023-09-19T10:01:26;17.70;99.90
66422;DHT22;53228;51.380;0.098;2023-09-19T10:03:58;17.60;99.90
66422;DHT22;53228;51.380;0.098;2023-09-19T10:06:40;17.70;99.90
66422;DHT22;53228;51.380;0.098;2023-09-19T10:09:15;19.80;99.90
66422;DHT22;53228;51.380;0.098;2023-09-19T10:12:06;17.80;99.90
66422;DHT22;53228;51.380;0.098;2023-09-19T10:14:38;17.80;99.90
66422;DHT22;53228;51.380;0.098;2023-09-19T10:17:06;17.80;99.90
66422;DHT22;53228;51.380;0.098;2023-09-19T10:19:42;17.90;99.90
66422;DHT22;53228;51.380;0.098;2023-09-19T10:22:14;17.00;99.90
66422;DHT22;53228;51.380;0.098;2023-09-19T10:24:43;18.00;99.90
66422;DHT22;53228;51.380;0.098;2023-09-19T10:27:29;18.00;99.90
66422;DHT22;53228;51.380;0.098;2023-09-19T10:30:08;18.00;99.90
66422;DHT22;53228;51.380;0.098;2023-09-19T10:32:39;18.00;99.90
66422;DHT22;53228;51.380;0.098;2023-09-19T10:35:08;18.00;99.90
66422;DHT22;53228;51.380;0.098;2023-09-19T10:37:41;18.00;99.90
66422;DHT22;53228;51.380;0.098;2023-09-19T10:40:10;18.00;99.90
66422;DHT22;53228;51.380;0.098;2023-09-19T10:42:40;18.00;99.90
66422;DHT22;53228;51.380;0.098;2023-09-19T10:45:10;18.10;99.90
66422;DHT22;53228;51.380;0.098;2023-09-19T10:47:41;17.20;99.90
66422;DHT22;53228;51.380;0.098;2023-09-19T10:50:09;18.10;99.90
66422;DHT22;53228;51.380;0.098;2023-09-19T10:52:40;18.10;99.90
66422;DHT22;53228;51.380;0.098;2023-09-19T10:55:16;18.10;99.90
66422;DHT22;53228;51.380;0.098;2023-09-19T10:57:46;18.00;99.90
66422;DHT22;53228;51.380;0.098;2023-09-19T11:00:15;18.00;99.90
66422;DHT22;53228;51.380;0.098;2023-09-19T11:05:40;18.00;99.90
66422;DHT22;53228;51.380;0.098;2023-09-19T11:08:08;18.00;99.90
66422;DHT22;53228;51.380;0.098;2023-09-19T11:10:50;18.00;99.90
66422;DHT22;53228;51.380;0.098;2023-09-19T11:13:37;18.00;99.90
66422;DHT22;53228;51.380;0.098;2023-09-19T11:16:05;17.90;99.90
66422;DHT22;53228;51.380;0.098;2023-09-19T11:26:45;17.70;99.90
66422;DHT22;53228;51.380;0.098;2023-09-19T11:29:29;17.50;99.90
66422;DHT22;53228;51.380;0.098;2023-09-19T11:31:58;17.50;99.90
66422;DHT22;53228;51.380;0.098;2023-09-19T11:40:09;17.30;99.90
66422;DHT22;53228;51.380;0.098;2023-09-19T11:42:53;17.30;99.90
66422;DHT22;53228;51.380;0.098;2023-09-19T11:48:15;16.60;99.90
66422;DHT22;53228;51.380;0.098;2023-09-19T11:50:43;17.30;99.90
66422;DHT22;53228;51.380;0.098;2023-09-19T11:53:14;17.50;99.90
66422;DHT22;53228;51.380;0.098;2023-09-19T11:55:43;17.30;99.90
66422;DHT22;53228;51.380;0.098;2023-09-19T11:58:15;17.30;99.90
66422;DHT22;53228;51.380;0.098;2023-09-19T12:00:45;17.40;99.90
66422;DHT22;53228;51.380;0.098;2023-09-19T12:03:13;18.80;99.90
66422;DHT22;53228;51.380;0.098;2023-09-19T12:05:46;17.40;99.90
66422;DHT22;53228;51.380;0.098;2023-09-19T12:08:15;17.40;99.90
66422;DHT22;53228;51.380;0.098;2023-09-19T12:10:48;17.80;99.90
66422;DHT22;53228;51.380;0.098;2023-09-19T12:13:17;17.50;99.90
66422;DHT22;53228;51.380;0.098;2023-09-19T12:15:46;17.60;99.90
66422;DHT22;53228;51.380;0.098;2023-09-19T12:18:28;17.60;99.90
66422;DHT22;53228;51.380;0.098;2023-09-19T12:20:57;17.60;99.90
66422;DHT22;53228;51.380;0.098;2023-09-19T12:23:25;17.60;99.90
66422;DHT22;53228;51.380;0.098;2023-09-19T12:25:54;17.70;99.90
66422;DHT22;53228;51.380;0.098;2023-09-19T12:28:27;17.70;99.90
66422;DHT22;53228;51.380;0.098;2023-09-19T12:31:06;18.40;99.90
66422;DHT22;53228;51.380;0.098;2023-09-19T12:33:35;17.70;99.90
66422;DHT22;53228;51.380;0.098;2023-09-19T12:36:21;17.80;99.90
66422;DHT22;53228;51.380;0.098;2023-09-19T12:38:56;17.80;99.90
66422;DHT22;53228;51.380;0.098;2023-09-19T12:41:26;17.90;99.90
66422;DHT22;53228;51.380;0.098;2023-09-19T12:43:54;17.90;99.90
66422;DHT22;53228;51.380;0.098;2023-09-19T12:46:22;17.90;99.90
66422;DHT22;53228;51.380;0.098;2023-09-19T12:49:16;18.10;99.90
66422;DHT22;53228;51.380;0.098;2023-09-19T12:51:48;18.30;99.90
66422;DHT22;53228;51.380;0.098;2023-09-19T12:54:17;18.10;99.90
66422;DHT22;53228;51.380;0.098;2023-09-19T12:56:45;18.20;99.90
66422;DHT22;53228;51.380;0.098;2023-09-19T12:59:15;20.90;99.90
66422;DHT22;53228;51.380;0.098;2023-09-19T13:01:43;18.70;99.90
66422;DHT22;53228;51.380;0.098;2023-09-19T13:04:20;18.20;99.90
66422;DHT22;53228;51.380;0.098;2023-09-19T13:06:56;18.70;99.90
66422;DHT22;53228;51.380;0.098;2023-09-19T13:09:28;18.20;99.90
66422;DHT22;53228;51.380;0.098;2023-09-19T13:12:03;18.30;99.90
66422;DHT22;53228;51.380;0.098;2023-09-19T13:14:31;18.30;99.90
66422;DHT22;53228;51.380;0.098;2023-09-19T13:17:04;18.30;99.90
66422;DHT22;53228;51.380;0.098;2023-09-19T13:19:51;18.40;99.90
66422;DHT22;53228;51.380;0.098;2023-09-19T13:22:44;18.40;99.90
66422;DHT22;53228;51.380;0.098;2023-09-19T13:25:22;17.10;99.90
66422;DHT22;53228;51.380;0.098;2023-09-19T13:27:51;18.40;99.90
66422;DHT22;53228;51.380;0.098;2023-09-19T13:30:28;18.70;99.90
66422;DHT22;53228;51.380;0.098;2023-09-19T13:33:09;18.30;99.90
66422;DHT22;53228;51.380;0.098;2023-09-19T13:35:38;18.30;99.90
66422;DHT22;53228;51.380;0.098;2023-09-19T13:38:09;18.30;99.90
66422;DHT22;53228;51.380;0.098;2023-09-19T13:40:39;18.30;99.90
66422;DHT22;53228;51.380;0.098;2023-09-19T13:43:09;18.30;99.90
66422;DHT22;53228;51.380;0.098;2023-09-19T13:45:39;18.70;99.90
66422;DHT22;53228;51.380;0.098;2023-09-19T13:48:09;19.20;99.90
66422;DHT22;53228;51.380;0.098;2023-09-19T13:50:41;18.20;99.90
66422;DHT22;53228;51.380;0.098;2023-09-19T13:53:10;18.20;99.90
66422;DHT22;53228;51.380;0.098;2023-09-19T13:55:38;18.20;99.90
66422;DHT22;53228;51.380;0.098;2023-09-19T13:58:06;18.30;99.90
66422;DHT22;53228;51.380;0.098;2023-09-19T14:00:34;18.30;99.90
66422;DHT22;53228;51.380;0.098;2023-09-19T14:03:02;18.40;99.90
66422;DHT22;53228;51.380;0.098;2023-09-19T14:05:32;18.50;99.90
66422;DHT22;53228;51.380;0.098;2023-09-19T14:08:00;18.50;99.90
66422;DHT22;53228;51.380;0.098;2023-09-19T14:10:28;18.50;99.90
66422;DHT22;53228;51.380;0.098;2023-09-19T14:12:58;18.50;99.90
66422;DHT22;53228;51.380;0.098;2023-09-19T14:15:27;18.50;99.90
66422;DHT22;53228;51.380;0.098;2023-09-19T14:17:58;18.60;99.90
66422;DHT22;53228;51.380;0.098;2023-09-19T14:20:28;18.60;99.90
66422;DHT22;53228;51.380;0.098;2023-09-19T14:22:56;18.60;99.90
66422;DHT22;53228;51.380;0.098;2023-09-19T14:25:26;18.60;99.90
66422;DHT22;53228;51.380;0.098;2023-09-19T14:27:54;18.60;99.90
66422;DHT22;53228;51.380;0.098;2023-09-19T14:30:21;18.50;99.90
66422;DHT22;53228;51.380;0.098;2023-09-19T14:32:49;18.50;99.90
66422;DHT22;53228;51.380;0.098;2023-09-19T14:35:17;18.50;99.90
66422;DHT22;53228;51.380;0.098;2023-09-19T14:37:44;18.50;99.90
66422;DHT22;53228;51.380;0.098;2023-09-19T14:40:13;18.40;99.90
66422;DHT22;53228;51.380;0.098;2023-09-19T14:42:43;18.40;99.90
66422;DHT22;53228;51.380;0.098;2023-09-19T14:45:12;18.40;99.90
66422;DHT22;53228;51.380;0.098;2023-09-19T14:47:42;18.30;99.90
66422;DHT22;53228;51.380;0.098;2023-09-19T14:50:10;18.30;99.90
66422;DHT22;53228;51.380;0.098;2023-09-19T14:52:39;18.20;99.90
66422;DHT22;53228;51.380;0.098;2023-09-19T14:55:07;18.10;99.90
66422;DHT22;53228;51.380;0.098;2023-09-19T14:57:42;18.00;99.90
66422;DHT22;53228;51.380;0.098;2023-09-19T15:00:13;18.00;99.90
66422;DHT22;53228;51.380;0.098;2023-09-19T15:02:41;17.90;99.90
66422;DHT22;53228;51.380;0.098;2023-09-19T15:05:09;17.80;99.90
66422;DHT22;53228;51.380;0.098;2023-09-19T15:07:37;18.00;99.90
66422;DHT22;53228;51.380;0.098;2023-09-19T15:10:05;17.70;99.90
66422;DHT22;53228;51.380;0.098;2023-09-19T15:12:37;17.70;99.90
66422;DHT22;53228;51.380;0.098;2023-09-19T15:15:05;17.60;99.90
66422;DHT22;53228;51.380;0.098;2023-09-19T15:17:36;19.70;99.90
66422;DHT22;53228;51.380;0.098;2023-09-19T15:20:05;17.70;99.90
66422;DHT22;53228;51.380;0.098;2023-09-19T15:22:36;17.90;99.90
66422;DHT22;53228;51.380;0.098;2023-09-19T15:25:04;17.70;99.90
66422;DHT22;53228;51.380;0.098;2023-09-19T15:27:33;17.70;99.90
66422;DHT22;53228;51.380;0.098;2023-09-19T15:30:00;17.70;99.90
66422;DHT22;53228;51.380;0.098;2023-09-19T15:32:30;17.60;99.90
66422;DHT22;53228;51.380;0.098;2023-09-19T15:34:58;17.60;99.90
66422;DHT22;53228;51.380;0.098;2023-09-19T15:37:26;17.50;99.90
66422;DHT22;53228;51.380;0.098;2023-09-19T15:39:54;17.50;99.90
66422;DHT22;53228;51.380;0.098;2023-09-19T15:42:21;17.40;99.90
66422;DHT22;53228;51.380;0.098;2023-09-19T15:44:49;15.50;99.90
66422;DHT22;53228;51.380;0.098;2023-09-19T15:47:19;15.80;99.90
66422;DHT22;53228;51.380;0.098;2023-09-19T15:49:47;17.40;99.90
66422;DHT22;53228;51.380;0.098;2023-09-19T15:52:17;16.50;99.90
66422;DHT22;53228;51.380;0.098;2023-09-19T15:54:46;17.30;99.90
66422;DHT22;53228;51.380;0.098;2023-09-19T15:57:13;17.30;99.90
66422;DHT22;53228;51.380;0.098;2023-09-19T15:59:41;17.30;99.90
66422;DHT22;53228;51.380;0.098;2023-09-19T16:02:09;17.30;99.90
66422;DHT22;53228;51.380;0.098;2023-09-19T16:04:36;17.20;99.90
66422;DHT22;53228;51.380;0.098;2023-09-19T16:07:05;17.20;99.90
66422;DHT22;53228;51.380;0.098;2023-09-19T16:09:34;17.20;99.90
66422;DHT22;53228;51.380;0.098;2023-09-19T16:12:03;17.10;99.90
66422;DHT22;53228;51.380;0.098;2023-09-19T16:14:31;17.00;99.90
66422;DHT22;53228;51.380;0.098;2023-09-19T16:16:58;18.90;99.90
66422;DHT22;53228;51.380;0.098;2023-09-19T16:19:27;16.90;99.90
66422;DHT22;53228;51.380;0.098;2023-09-19T16:21:55;16.90;99.90
66422;DHT22;53228;51.380;0.098;2023-09-19T16:24:23;16.90;99.90
66422;DHT22;53228;51.380;0.098;2023-09-19T16:26:51;15.60;99.90
66422;DHT22;53228;51.380;0.098;2023-09-19T16:29:20;16.90;99.90
66422;DHT22;53228;51.380;0.098;2023-09-19T16:31:51;16.90;99.90
66422;DHT22;53228;51.380;0.098;2023-09-19T16:34:20;17.90;99.90
66422;DHT22;53228;51.380;0.098;2023-09-19T16:36:47;17.10;99.90